Sukret — TCA3885 — position and weather

sailwx.info

Track history (hours):
 
Tides and Currents Weather Stations Pressure Air Temp Water Temp Dewpoint Dewpoint Depression Visibility Wind Speed Wind Dir Waves Ship Positions

Sukret

Last reported at 2017-Dec-15 08:15 UTC. Time now 2017-Dec-15 10:25 UTC.
Position N 40°45' E 029°22'.

Length 149 m; draft 6 m.

Type: Cargo ship. MMSI: 271044363.

Date/timePositionNaut miles runAvg speedWind from/ knotsBaromVisibWave heightAir tempDewpointWater temp
2017-Dec-15 08:15N 40°45' E 029°22'0 0.0
2017-Dec-15 07:57N 40°45' E 029°22'1 0.2
2017-Dec-15 00:54N 40°45' E 029°24'611.3
2017-Dec-15 00:24N 40°45' E 029°31'  
2017-Dec-10 14:43N 40°45' E 029°33'4 9.1
2017-Dec-10 14:20N 40°45' E 029°29'411.0
2017-Dec-10 14:00N 40°43' E 029°24'3 6.6
2017-Dec-10 13:30N 40°43' E 029°20'3 6.2
2017-Dec-10 13:00N 40°42' E 029°16'1 2.2
2017-Dec-10 12:30N 40°42' E 029°15'3 6.5
2017-Dec-10 12:00N 40°43' E 029°11'612.0
2017-Dec-10 11:30N 40°43' E 029°03'224 9.9
2017-Dec-09 12:50N 37°57' E 025°49'412.6
2017-Dec-09 12:30N 37°53' E 025°50'1512.2
2017-Dec-09 11:17N 37°38' E 025°53'312.0
2017-Dec-09 11:00N 37°35' E 025°53'611.3
2017-Dec-09 10:30N 37°30' E 025°56'612.3
2017-Dec-09 10:00N 37°26' E 026°02'612.4
2017-Dec-09 09:29N 37°22' E 026°08'612.4
2017-Dec-09 09:00N 37°18' E 026°14'612.1
2017-Dec-09 08:30N 37°14' E 026°20'612.1
2017-Dec-09 08:00N 37°10' E 026°25'612.3
2017-Dec-09 07:30N 37°06' E 026°31'712.4
2017-Dec-09 06:59N 37°02' E 026°37'1112.6
2017-Dec-09 06:07N 36°52' E 026°44'  
Track history (hours):
 
Tides and Currents Weather Stations Pressure Air Temp Water Temp Dewpoint Dewpoint Depression Visibility Wind Speed Wind Dir Waves Ship Positions

Sukret

Last reported at 2017-Dec-15 08:15 UTC. Time now 2017-Dec-15 10:25 UTC.
Position N 40°45' E 029°22'.

Length 149 m; draft 6 m.

Type: Cargo ship. MMSI: 271044363.

Date/timePositionNaut miles runAvg speedWind from/ knotsBaromVisibWave heightAir tempDewpointWater temp
2017-Dec-15 08:15N 40°45' E 029°22'0 0.0
2017-Dec-15 07:57N 40°45' E 029°22'1 0.2
2017-Dec-15 00:54N 40°45' E 029°24'611.3
2017-Dec-15 00:24N 40°45' E 029°31'  
2017-Dec-10 14:43N 40°45' E 029°33'4 9.1
2017-Dec-10 14:20N 40°45' E 029°29'411.0
2017-Dec-10 14:00N 40°43' E 029°24'3 6.6
2017-Dec-10 13:30N 40°43' E 029°20'3 6.2
2017-Dec-10 13:00N 40°42' E 029°16'1 2.2
2017-Dec-10 12:30N 40°42' E 029°15'3 6.5
2017-Dec-10 12:00N 40°43' E 029°11'612.0
2017-Dec-10 11:30N 40°43' E 029°03'224 9.9
2017-Dec-09 12:50N 37°57' E 025°49'412.6
2017-Dec-09 12:30N 37°53' E 025°50'1512.2
2017-Dec-09 11:17N 37°38' E 025°53'312.0
2017-Dec-09 11:00N 37°35' E 025°53'611.3
2017-Dec-09 10:30N 37°30' E 025°56'612.3
2017-Dec-09 10:00N 37°26' E 026°02'612.4
2017-Dec-09 09:29N 37°22' E 026°08'612.4
2017-Dec-09 09:00N 37°18' E 026°14'612.1
2017-Dec-09 08:30N 37°14' E 026°20'612.1
2017-Dec-09 08:00N 37°10' E 026°25'612.3
2017-Dec-09 07:30N 37°06' E 026°31'712.4
2017-Dec-09 06:59N 37°02' E 026°37'1112.6
2017-Dec-09 06:07N 36°52' E 026°44'  

Dump ship's entire track history